Airfield :
LOGIN :

Register | Disclaimer

   EN    FR    IT 

 










Legend :    VFR   Marginal VFR   IFR   Intensive IFR   Very Intensive IFR
Visi :
Ceiling :
>= 8 km
>= 3000ft
5 to 8 km
1000 to 3000 ft
1500m to 5 km
500 to 1000 ft
800 to 1500m
200 to 500 ft
< 800m
< 200 ft
Symbols :   Thunderstorms  Fog  Heavy snow  Heavy precipitations  Wind > 20 kt
SIGMETs :     Misc.  Thunderstorms  Icing  Turbulence  Mountain Waves  Volcanic Ashes







- Airport Elevation : 1000 ft
- IATA code : PEV


LHPP - Pécs Pogany

CURRENT METAR :
  • 251045Z 10007KT 9999 BKN023 16/10 Q1022

EXPIRED METARs :
  • 251015Z 08009KT 9999 SCT023 SCT083 16/10 Q1022
  • 250945Z 07007KT 9999 SCT023 SCT083 16/10 Q1022
  • 250915Z 10007KT 9999 SCT016 BKN083 15/10 Q1022
  • 250845Z 12007KT 9999 BKN016 15/11 Q1022
  • 250815Z 08006KT 8000 BKN013 14/11 Q1022
  • 250807Z 09006KT 7000 BKN010 14/11 Q1022

TAF TAF LHPP
Valid from the 25 at 09:00 until the 25 at 18:00 UTC


250815Z 2509/2518 10007KT 9999 SCT010
BECMG 2509/2511 CAVOK
BECMG 2511/2514 SCT045 BKN100
TEMPO 2515/2518 -RA SCT010 OVC060
No reported NOTAMs for that airfield.



MET'MAP, your aeronautical weather chart ! - Copyright ORBIFLY December 2007 - Disclaimer

ORBIFLY MET'MAP TEAM :

Programming & Development : Alexandra Zaïnal
Concept & Development : Baudouin d'Aumeries
Co-Development & Prog : Marc-Olivier Méhu
Technical & hardware support : Manuel Goepfert

Contact : metmap@orbifly.com




SOURCES & CREDITS :

   NOAA